Time;durP1;ratioP1;P1;durP2;ratioP2;P2;SDS_P1;SDS_P2;PMS_P1;PMS_P2;Temp;Humidity;BMP_temperature;BMP_pressure;BME280_temperature;BME280_humidity;BME280_pressure;Samples;Min_cycle;Max_cycle;Signal;HPM_P1;HPM_P2
2023/01/27 00:03:29;;;;;;;58.28;18.85;;;;;;;1.39;86.68;101184.91;10196320;29;20082;-74
2023/01/27 00:08:32;;;;;;;50.83;17.42;;;;;;;1.42;86.39;101184.81;10192288;29;20459;-75
2023/01/27 00:13:35;;;;;;;61.00;17.70;;;;;;;1.37;86.72;101180.56;10189120;29;20473;-75
2023/01/27 00:18:39;;;;;;;63.20;18.65;;;;;;;1.44;86.34;101184.78;10190995;29;20095;-75
2023/01/27 00:29:02;;;;;;;57.38;19.50;;;;;;;1.45;86.75;101182.09;10187151;29;20051;-74
2023/01/27 00:34:10;;;;;;;60.80;22.00;;;;;;;1.38;86.57;101184.97;10190122;29;20048;-73
2023/01/27 00:39:14;;;;;;;64.88;20.00;;;;;;;1.44;86.57;101180.34;10197215;29;20032;-74
2023/01/27 00:44:18;;;;;;;59.03;19.80;;;;;;;1.44;86.63;101187.41;10201078;29;20043;-74
2023/01/27 00:49:23;;;;;;;63.15;19.55;;;;;;;1.48;86.39;101176.69;10197154;29;20515;-73
2023/01/27 00:54:26;;;;;;;54.03;18.55;;;;;;;1.43;86.63;101173.31;10198502;29;20044;-74
2023/01/27 00:59:30;;;;;;;55.90;19.77;;;;;;;1.45;86.36;101179.44;10196453;29;20047;-73
2023/01/27 01:04:34;;;;;;;49.05;17.27;;;;;;;1.47;86.66;101193.47;10199413;29;20391;-74
2023/01/27 01:09:37;;;;;;;53.80;17.65;;;;;;;1.54;86.68;101193.28;10201700;29;20419;-74
2023/01/27 01:14:39;;;;;;;44.60;18.70;;;;;;;1.52;86.53;101201.31;10186459;29;20040;-75
2023/01/27 01:19:43;;;;;;;49.83;17.42;;;;;;;1.53;86.61;101192.44;10201784;29;20518;-74
2023/01/27 01:24:46;;;;;;;44.60;16.17;;;;;;;1.58;86.38;101202.88;10199684;29;20052;-74
2023/01/27 01:29:49;;;;;;;48.70;16.20;;;;;;;1.58;86.55;101208.19;10196396;29;20043;-75
2023/01/27 01:34:53;;;;;;;42.45;15.27;;;;;;;1.63;86.62;101208.91;10190948;29;20052;-74
2023/01/27 01:39:56;;;;;;;44.00;16.30;;;;;;;1.61;86.56;101206.31;10211327;28;20048;-75
2023/01/27 01:45:40;;;;;;;47.53;17.30;;;;;;;1.62;86.40;101197.47;10203730;29;20531;-75
2023/01/27 01:50:50;;;;;;;47.72;17.52;;;;;;;1.65;86.40;101192.06;10187928;29;20051;-75
2023/01/27 01:55:53;;;;;;;47.33;16.85;;;;;;;1.65;86.60;101194.72;10194293;29;20051;-75
2023/01/27 02:00:55;;;;;;;49.72;17.73;;;;;;;1.62;86.95;101193.91;10195645;29;20048;-76
2023/01/27 02:06:01;;;;;;;49.65;16.58;;;;;;;1.68;86.76;101196.41;10197808;29;20048;-75
2023/01/27 02:11:04;;;;;;;47.83;17.85;;;;;;;1.75;86.71;101200.56;10194337;29;20440;-74
2023/01/27 02:16:08;;;;;;;44.38;16.55;;;;;;;1.76;86.65;101198.81;10192115;29;20044;-75
2023/01/27 02:21:13;;;;;;;50.40;16.02;;;;;;;1.76;86.68;101196.16;10198573;29;20503;-76
2023/01/27 02:26:20;;;;;;;42.17;16.00;;;;;;;1.76;86.83;101191.72;10197608;29;20039;-77
2023/01/27 02:31:23;;;;;;;40.97;16.65;;;;;;;1.73;87.12;101191.84;10192513;29;20470;-77
2023/01/27 02:36:30;;;;;;;45.63;15.93;;;;;;;1.82;86.85;101195.97;10193596;29;20044;-76
2023/01/27 02:41:39;;;;;;;45.05;16.27;;;;;;;1.80;86.95;101190.69;10192433;29;20043;-77
2023/01/27 02:46:43;;;;;;;39.72;15.90;;;;;;;1.85;86.92;101193.22;10194519;29;20063;-76
2023/01/27 02:51:46;;;;;;;36.53;14.68;;;;;;;1.83;86.87;101200.34;10188956;29;20064;-77
2023/01/27 02:56:53;;;;;;;38.47;15.40;;;;;;;1.90;86.92;101196.59;10183360;29;20056;-76
2023/01/27 03:01:59;;;;;;;44.63;17.30;;;;;;;1.93;86.95;101210.59;10184007;29;20128;-77
2023/01/27 03:07:03;;;;;;;44.03;16.33;;;;;;;1.98;86.98;101202.50;10205833;29;20040;-78
2023/01/27 03:12:19;;;;;;;40.05;15.95;;;;;;;1.95;86.97;101211.44;10203518;29;20067;-76
2023/01/27 03:22:42;;;;;;;48.35;17.88;;;;;;;1.99;87.00;101206.88;10194823;29;20044;-77
2023/01/27 03:27:49;;;;;;;50.00;17.48;;;;;;;1.99;87.01;101209.53;10197614;29;20047;-77
2023/01/27 03:33:11;;;;;;;51.13;18.10;;;;;;;1.99;87.08;101211.31;10196307;29;20060;-77
2023/01/27 03:49:02;;;;;;;45.85;17.98;;;;;;;2.00;87.18;101207.75;10194125;29;20048;-77
2023/01/27 03:54:05;;;;;;;52.22;18.33;;;;;;;2.04;87.13;101210.25;10186612;29;20144;-76
2023/01/27 03:59:09;;;;;;;56.33;20.85;;;;;;;1.89;87.22;101214.28;10224209;23;20054;-80
2023/01/27 04:09:34;;;;;;;49.45;18.83;;;;;;;1.93;87.23;101218.56;10201694;29;20039;-80
2023/01/27 04:14:40;;;;;;;42.47;18.23;;;;;;;1.94;87.46;101225.56;10194362;29;20044;-80
2023/01/27 04:19:44;;;;;;;44.58;18.42;;;;;;;1.94;87.66;101230.00;10184259;29;20048;-79
2023/01/27 04:24:46;;;;;;;37.88;16.80;;;;;;;1.97;87.50;101231.69;10199081;29;20202;-79
2023/01/27 04:29:50;;;;;;;43.25;17.55;;;;;;;2.04;87.40;101241.19;10199674;29;20161;-78
2023/01/27 04:34:53;;;;;;;42.38;17.40;;;;;;;2.03;87.58;101235.03;10199214;29;20040;-79
2023/01/27 04:39:56;;;;;;;46.78;18.73;;;;;;;2.03;87.60;101250.06;10198030;29;20103;-80
2023/01/27 04:45:00;;;;;;;50.97;21.08;;;;;;;2.09;87.48;101253.41;10199286;29;20698;-79
2023/01/27 04:50:03;;;;;;;43.88;18.40;;;;;;;2.14;87.45;101255.91;10203686;29;20051;-79
2023/01/27 04:55:07;;;;;;;42.95;18.27;;;;;;;2.13;87.64;101256.81;10195378;29;20146;-79
2023/01/27 05:00:14;;;;;;;44.00;18.48;;;;;;;2.14;87.75;101258.56;10182331;29;20050;-79
2023/01/27 05:05:19;;;;;;;38.67;18.02;;;;;;;2.20;87.36;101274.25;10198882;29;20076;-79
2023/01/27 05:10:21;;;;;;;32.55;16.10;;;;;;;2.23;87.51;101268.84;10201448;29;20124;-79
2023/01/27 05:15:26;;;;;;;34.58;14.70;;;;;;;2.23;87.51;101275.94;10203769;29;20047;-78
2023/01/27 05:20:30;;;;;;;30.98;15.18;;;;;;;2.21;87.66;101269.81;10185303;29;20048;-79
2023/01/27 05:25:33;;;;;;;27.90;13.70;;;;;;;2.23;87.64;101273.28;10201329;29;20523;-79
2023/01/27 05:30:37;;;;;;;29.63;12.98;;;;;;;2.26;87.49;101271.41;10206939;29;20119;-79
2023/01/27 05:35:39;;;;;;;22.27;11.02;;;;;;;2.26;87.60;101270.53;10208057;29;20273;-80
2023/01/27 05:40:42;;;;;;;20.80;10.70;;;;;;;2.27;87.66;101274.91;10200294;29;20077;-78
2023/01/27 05:45:46;;;;;;;20.13;10.13;;;;;;;2.25;87.84;101274.97;10201688;29;20036;-80
2023/01/27 05:50:57;;;;;;;18.58;9.00;;;;;;;2.33;87.69;101291.50;10211172;29;20036;-80
2023/01/27 05:56:00;;;;;;;18.98;10.20;;;;;;;2.25;87.74;101285.59;10200584;29;20115;-80
2023/01/27 06:01:09;;;;;;;21.73;10.10;;;;;;;2.33;87.84;101287.97;10190090;29;20138;-80
2023/01/27 06:06:14;;;;;;;21.52;10.48;;;;;;;2.33;87.71;101290.63;10208087;29;20100;-79
2023/01/27 06:11:18;;;;;;;22.17;11.27;;;;;;;2.34;87.76;101293.22;10207995;29;20837;-80
2023/01/27 06:16:24;;;;;;;21.65;10.65;;;;;;;2.38;87.68;101310.75;10213593;29;20041;-79
2023/01/27 06:21:26;;;;;;;24.15;10.18;;;;;;;2.43;87.79;101309.78;10195438;29;20068;-80
2023/01/27 06:26:29;;;;;;;22.02;10.50;;;;;;;2.45;87.71;101307.94;10208126;29;20040;-79
2023/01/27 06:31:33;;;;;;;20.60;10.05;;;;;;;2.45;87.66;101322.06;10205741;29;20051;-79
2023/01/27 06:36:37;;;;;;;21.88;9.60;;;;;;;2.46;87.75;101315.81;10202507;29;20051;-77
2023/01/27 06:41:40;;;;;;;22.23;9.98;;;;;;;2.41;88.05;101331.03;10199571;29;20051;-78
2023/01/27 06:46:44;;;;;;;17.42;8.05;;;;;;;2.50;87.87;101324.56;10196022;29;20046;-78
2023/01/27 06:51:47;;;;;;;18.35;8.80;;;;;;;2.50;87.84;101322.78;10208963;29;20052;-78
2023/01/27 06:56:50;;;;;;;19.27;8.70;;;;;;;2.49;87.96;101328.97;10200732;29;20052;-78
2023/01/27 07:01:54;;;;;;;20.77;8.65;;;;;;;2.53;87.76;101335.97;10201424;29;20048;-80
2023/01/27 07:06:57;;;;;;;14.50;8.32;;;;;;;2.56;87.94;101342.97;10193575;29;20046;-79
2023/01/27 07:11:59;;;;;;;14.82;7.47;;;;;;;2.55;88.02;101344.75;10202032;29;20039;-77
2023/01/27 07:17:04;;;;;;;16.42;8.15;;;;;;;2.57;87.82;101350.84;10208344;29;20534;-77
2023/01/27 07:22:06;;;;;;;19.52;8.27;;;;;;;2.57;87.78;101348.22;10192601;29;20044;-77
2023/01/27 07:27:09;;;;;;;15.18;7.18;;;;;;;2.60;87.94;101356.06;10204469;29;20036;-79
2023/01/27 07:32:13;;;;;;;13.90;7.90;;;;;;;2.56;87.90;101353.59;10201420;29;20419;-77
2023/01/27 07:37:16;;;;;;;14.30;7.45;;;;;;;2.63;87.93;101359.53;10200449;29;20044;-78
2023/01/27 07:42:19;;;;;;;12.02;5.45;;;;;;;2.67;88.05;101371.81;10203410;29;20044;-79
2023/01/27 07:47:25;;;;;;;35.65;14.00;;;;;;;2.90;88.40;101369.25;10189554;29;20087;-79
2023/01/27 07:52:28;;;;;;;24.88;9.52;;;;;;;3.04;87.84;101372.34;10211567;29;20514;-79
2023/01/27 07:57:31;;;;;;;24.23;10.40;;;;;;;3.20;87.92;101385.94;10203393;29;20051;-79
2023/01/27 08:02:35;;;;;;;11.55;6.90;;;;;;;3.24;87.70;101395.53;10190398;29;20036;-80
2023/01/27 08:07:38;;;;;;;5.03;4.15;;;;;;;3.17;87.51;101401.09;10187231;29;20072;-80
2023/01/27 08:12:41;;;;;;;3.90;3.58;;;;;;;3.23;87.55;101399.09;10198662;29;20051;-79
2023/01/27 08:17:45;;;;;;;5.50;4.43;;;;;;;3.25;87.44;101405.22;10202955;29;20036;-78
2023/01/27 08:22:47;;;;;;;4.28;3.45;;;;;;;3.26;87.21;101409.63;10191551;29;20040;-79
2023/01/27 08:27:50;;;;;;;4.80;3.67;;;;;;;3.09;87.08;101400.50;10190112;29;20052;-80
2023/01/27 08:32:55;;;;;;;5.00;3.28;;;;;;;2.99;87.37;101405.22;10196629;29;20044;-78
2023/01/27 08:37:57;;;;;;;4.88;3.78;;;;;;;2.97;87.35;101404.44;10201574;29;20062;-77
2023/01/27 08:43:00;;;;;;;8.63;4.15;;;;;;;2.99;87.33;101418.50;10197160;29;20047;-80
2023/01/27 08:48:08;;;;;;;7.85;5.72;;;;;;;3.02;87.38;101427.25;10190712;29;20119;-79
2023/01/27 08:53:12;;;;;;;11.38;7.18;;;;;;;2.99;87.38;101435.31;10172174;29;20051;-77
2023/01/27 08:58:16;;;;;;;10.43;6.78;;;;;;;3.00;87.36;101447.66;10164862;28;20055;-78
2023/01/27 09:03:20;;;;;;;7.25;5.15;;;;;;;2.86;87.22;101452.56;10166014;28;20052;-80
2023/01/27 09:08:24;;;;;;;7.57;5.78;;;;;;;2.82;87.55;101451.75;10169831;28;20447;-79
2023/01/27 09:13:27;;;;;;;9.75;5.80;;;;;;;2.79;87.51;101458.97;10172049;28;20111;-79
2023/01/27 09:18:32;;;;;;;8.32;5.85;;;;;;;2.89;87.82;101475.47;10169991;28;20081;-77
2023/01/27 09:23:34;;;;;;;9.85;5.72;;;;;;;2.94;87.74;101477.06;10165521;28;20509;-79
2023/01/27 09:28:37;;;;;;;8.13;5.40;;;;;;;3.05;87.49;101482.91;10162607;28;20063;-79
2023/01/27 09:33:41;;;;;;;8.13;4.28;;;;;;;2.88;86.94;101479.94;10165054;29;20060;-79
2023/01/27 09:38:48;;;;;;;6.32;3.38;;;;;;;2.90;87.13;101478.06;10166175;28;20103;-78
2023/01/27 09:44:10;;;;;;;6.20;4.00;;;;;;;2.92;86.88;101486.00;10168898;28;20130;-79
2023/01/27 09:49:34;;;;;;;4.47;3.67;;;;;;;2.87;86.92;101488.78;10153387;29;20068;-78
2023/01/27 09:54:54;;;;;;;6.90;3.47;;;;;;;2.81;86.57;101489.84;10170868;28;20078;-77
2023/01/27 10:00:10;;;;;;;5.43;3.28;;;;;;;2.93;86.84;101490.38;10170313;28;20047;-78
2023/01/27 10:05:31;;;;;;;3.78;2.20;;;;;;;2.98;86.28;101491.97;10158836;28;20080;-77
2023/01/27 10:10:50;;;;;;;1.95;1.85;;;;;;;2.78;86.01;101486.44;10147161;29;20076;-79
2023/01/27 10:16:09;;;;;;;6.07;2.35;;;;;;;2.57;85.89;101485.28;10163062;28;20066;-77
2023/01/27 10:21:21;;;;;;;1.73;1.55;;;;;;;2.77;85.33;101482.03;10166183;28;20075;-78
2023/01/27 10:26:31;;;;;;;2.40;2.10;;;;;;;3.19;85.07;101484.25;10156539;28;20051;-79
2023/01/27 10:31:36;;;;;;;3.63;1.83;;;;;;;3.22;84.06;101485.00;10152824;28;20130;-78
2023/01/27 10:36:50;;;;;;;2.60;1.73;;;;;;;3.39;83.57;101479.13;10167349;28;20071;-77
2023/01/27 10:42:01;;;;;;;1.70;1.60;;;;;;;3.77;83.35;101486.72;10165764;28;20076;-79
2023/01/27 10:47:13;;;;;;;2.93;1.50;;;;;;;3.70;81.77;101500.22;10167651;28;20052;-78
2023/01/27 10:52:23;;;;;;;3.22;1.92;;;;;;;3.53;80.75;101489.28;10151873;29;20123;-79
2023/01/27 10:57:33;;;;;;;2.83;2.00;;;;;;;3.48;80.57;101493.88;10172297;28;20040;-78
2023/01/27 11:02:41;;;;;;;2.97;2.30;;;;;;;3.60;80.90;101498.78;10163230;28;20700;-76
2023/01/27 11:07:50;;;;;;;3.08;2.40;;;;;;;3.72;81.02;101493.03;10152792;28;20044;-78
2023/01/27 11:12:56;;;;;;;2.15;1.95;;;;;;;3.86;81.04;101487.25;10148677;29;20052;-78
2023/01/27 11:18:03;;;;;;;2.25;2.05;;;;;;;4.47;81.81;101494.78;10170536;28;20205;-78
2023/01/27 11:23:17;;;;;;;4.03;2.42;;;;;;;4.35;78.85;101490.78;10165033;28;20500;-77
2023/01/27 11:28:31;;;;;;;3.20;2.58;;;;;;;4.11;79.72;101499.66;10153620;29;20214;-79
2023/01/27 11:33:46;;;;;;;3.47;2.30;;;;;;;4.00;79.70;101492.06;10158304;28;20111;-79
2023/01/27 11:38:51;;;;;;;3.92;2.40;;;;;;;3.86;79.36;101489.03;10159341;28;20056;-78
2023/01/27 11:43:53;;;;;;;2.58;2.38;;;;;;;3.95;79.45;101488.72;10157869;28;21557;-78
2023/01/27 11:48:58;;;;;;;4.00;2.95;;;;;;;3.63;79.27;101484.53;10161590;28;20062;-78
2023/01/27 11:54:07;;;;;;;5.35;2.58;;;;;;;3.49;79.96;101479.69;10146874;28;20060;-79
2023/01/27 11:59:17;;;;;;;5.60;2.58;;;;;;;3.43;80.14;101478.13;10158780;28;20502;-77
2023/01/27 12:04:28;;;;;;;4.57;2.58;;;;;;;3.60;80.77;101477.53;10158096;28;20063;-77
2023/01/27 12:09:38;;;;;;;3.67;2.30;;;;;;;3.93;80.61;101487.91;10145149;28;20040;-77
2023/01/27 12:14:48;;;;;;;4.18;2.10;;;;;;;4.50;78.97;101481.34;10141558;29;20059;-77
2023/01/27 12:19:54;;;;;;;2.65;2.30;;;;;;;4.56;79.89;101475.78;10149320;28;20081;-78
2023/01/27 12:25:01;;;;;;;5.00;2.38;;;;;;;4.40;79.64;101474.66;10159254;28;20059;-78
2023/01/27 12:30:08;;;;;;;4.00;2.40;;;;;;;4.45;79.30;101480.66;10146625;28;20058;-78
2023/01/27 12:35:20;;;;;;;3.25;1.95;;;;;;;4.41;79.27;101473.72;10157493;28;20052;-78
2023/01/27 12:40:27;;;;;;;2.25;2.05;;;;;;;4.67;80.36;101464.72;10162376;28;20407;-78
2023/01/27 12:45:33;;;;;;;2.38;2.17;;;;;;;4.55;78.90;101460.78;10161542;28;20135;-76
2023/01/27 12:50:37;;;;;;;3.78;2.13;;;;;;;4.00;78.68;101464.63;10156376;28;20048;-77
2023/01/27 12:55:45;;;;;;;3.78;2.15;;;;;;;3.92;79.94;101472.84;10148523;29;20084;-78
2023/01/27 13:00:48;;;;;;;3.97;2.03;;;;;;;4.03;81.07;101459.19;10165379;28;20146;-77
2023/01/27 13:05:54;;;;;;;4.65;1.90;;;;;;;4.65;80.09;101445.28;10170062;28;20050;-79
2023/01/27 13:11:01;;;;;;;2.38;2.17;;;;;;;4.62;77.78;101448.94;10155924;28;20055;-78
2023/01/27 13:16:17;;;;;;;5.07;2.20;;;;;;;4.14;78.13;101463.19;10166721;28;20048;-77
2023/01/27 13:21:25;;;;;;;5.25;3.13;;;;;;;3.84;78.98;101470.50;10160180;29;20515;-78
2023/01/27 13:26:32;;;;;;;4.82;3.53;;;;;;;3.75;79.74;101470.81;10169433;28;20054;-78
2023/01/27 13:31:42;;;;;;;3.90;3.30;;;;;;;3.72;80.25;101479.75;10162012;28;20050;-79
2023/01/27 13:36:51;;;;;;;3.92;3.13;;;;;;;3.85;80.96;101471.38;10154122;28;20048;-79
2023/01/27 13:42:05;;;;;;;3.78;2.95;;;;;;;4.00;80.47;101467.28;10158890;28;20119;-79
2023/01/27 13:47:16;;;;;;;10.57;3.67;;;;;;;3.83;80.68;101474.06;10166304;28;20056;-78
2023/01/27 13:52:18;;;;;;;2.95;2.55;;;;;;;3.67;80.37;101480.84;10163280;28;20111;-76
2023/01/27 13:57:47;;;;;;;3.30;2.22;;;;;;;3.50;80.32;101476.09;10147850;29;20081;-78
2023/01/27 14:03:15;;;;;;;5.93;2.40;;;;;;;3.46;80.59;101483.31;10172405;28;20058;-79
2023/01/27 14:08:40;;;;;;;6.40;2.50;;;;;;;3.48;80.71;101485.91;10169685;28;20139;-80
2023/01/27 14:14:02;;;;;;;3.92;2.50;;;;;;;3.58;80.95;101487.34;10165668;28;21666;-76
2023/01/27 14:19:20;;;;;;;3.05;2.50;;;;;;;3.46;80.33;101487.78;10159637;28;20146;-79
2023/01/27 14:24:32;;;;;;;4.05;2.50;;;;;;;3.33;80.27;101497.06;10170633;28;20056;-78
2023/01/27 14:29:45;;;;;;;4.18;2.60;;;;;;;3.24;80.58;101508.88;10172175;28;20150;-79
2023/01/27 14:35:04;;;;;;;3.83;2.17;;;;;;;3.34;80.64;101509.41;10153504;28;20074;-79
2023/01/27 14:40:18;;;;;;;2.25;2.05;;;;;;;3.30;80.07;101510.47;10154341;29;20056;-79
2023/01/27 14:45:28;;;;;;;2.63;2.03;;;;;;;3.23;79.84;101505.31;10172708;28;20079;-79
2023/01/27 14:50:36;;;;;;;3.17;1.70;;;;;;;3.29;80.37;101501.59;10166233;28;20067;-78
2023/01/27 14:55:47;;;;;;;3.13;1.63;;;;;;;3.33;80.03;101505.03;10162208;28;20399;-79
2023/01/27 15:01:02;;;;;;;2.38;2.10;;;;;;;3.21;80.18;101507.19;10160779;29;22796;-80
2023/01/27 15:06:10;;;;;;;3.10;2.30;;;;;;;3.12;79.70;101518.06;10166010;28;20043;-79
2023/01/27 15:11:33;;;;;;;4.10;2.35;;;;;;;3.05;79.92;101527.16;10157648;28;20052;-79
2023/01/27 15:16:57;;;;;;;3.85;2.33;;;;;;;3.09;80.21;101527.94;10157367;28;20173;-77
2023/01/27 15:22:40;;;;;;;4.30;2.78;;;;;;;3.06;80.37;101540.38;10151685;28;21333;-79
2023/01/27 15:27:43;;;;;;;7.85;3.47;;;;;;;2.89;79.88;101536.53;10135352;28;20052;-78
2023/01/27 15:32:47;;;;;;;4.95;3.10;;;;;;;2.84;79.92;101542.84;10162553;28;20047;-79
2023/01/27 15:37:57;;;;;;;6.07;3.35;;;;;;;2.78;80.42;101551.00;10150063;29;20054;-79
2023/01/27 15:43:04;;;;;;;8.85;3.95;;;;;;;2.76;80.30;101557.25;10152830;29;20066;-78
2023/01/27 15:48:14;;;;;;;4.50;2.97;;;;;;;2.71;80.31;101561.81;10161932;28;20154;-79
2023/01/27 15:53:31;;;;;;;4.05;3.05;;;;;;;2.64;79.93;101561.16;10155471;28;20163;-78
2023/01/27 15:58:38;;;;;;;9.50;3.45;;;;;;;2.53;79.81;101574.72;10176751;29;20048;-77
2023/01/27 16:03:47;;;;;;;4.60;2.38;;;;;;;2.61;79.64;101577.16;10174783;29;20068;-78
2023/01/27 16:08:54;;;;;;;3.40;1.90;;;;;;;2.43;78.85;101580.28;10163493;28;20047;-79
2023/01/27 16:14:30;;;;;;;3.92;2.03;;;;;;;2.44;78.69;101588.22;10160899;28;20054;-78
2023/01/27 16:19:39;;;;;;;1.95;1.60;;;;;;;2.42;78.62;101586.53;10150871;29;20184;-79
2023/01/27 16:24:47;;;;;;;6.68;3.28;;;;;;;2.38;77.81;101585.72;10150619;28;20135;-78
2023/01/27 16:29:58;;;;;;;2.55;1.60;;;;;;;2.27;77.30;101591.31;10159642;28;20668;-78
2023/01/27 16:35:04;;;;;;;2.88;1.48;;;;;;;2.27;78.00;101598.41;10153767;28;20044;-79
2023/01/27 16:40:15;;;;;;;4.07;1.75;;;;;;;2.33;78.73;101598.22;10150864;28;20539;-78
2023/01/27 16:45:21;;;;;;;4.45;3.22;;;;;;;2.34;79.02;101605.28;10151662;29;20638;-77
2023/01/27 16:50:37;;;;;;;7.65;2.10;;;;;;;2.32;78.69;101604.47;10159347;28;20056;-79
2023/01/27 16:55:40;;;;;;;3.63;1.67;;;;;;;2.31;78.38;101608.03;10156804;28;20052;-78
2023/01/27 17:00:43;;;;;;;2.30;1.52;;;;;;;2.21;77.51;101603.88;10141793;28;20051;-78
2023/01/27 17:05:52;;;;;;;2.42;1.90;;;;;;;2.23;77.61;101615.31;10156863;28;20085;-77
2023/01/27 17:10:57;;;;;;;3.20;1.40;;;;;;;2.26;78.08;101618.75;10163725;28;20531;-79
2023/01/27 17:16:03;;;;;;;5.60;1.85;;;;;;;2.23;78.02;101624.13;10158731;28;20169;-79
2023/01/27 17:21:08;;;;;;;3.70;1.50;;;;;;;2.24;77.32;101625.88;10156179;28;21106;-79
2023/01/27 17:26:15;;;;;;;4.40;2.13;;;;;;;2.09;75.69;101627.16;10160198;28;20119;-79
2023/01/27 17:31:22;;;;;;;5.22;3.00;;;;;;;2.17;76.22;101632.25;10171765;28;20056;-79
2023/01/27 17:36:26;;;;;;;3.35;2.63;;;;;;;2.27;77.69;101625.78;10168777;28;21964;-77
2023/01/27 17:41:34;;;;;;;5.00;3.10;;;;;;;2.27;77.58;101628.44;10155609;28;20047;-78
2023/01/27 17:46:38;;;;;;;5.38;2.05;;;;;;;2.25;77.16;101643.53;10160237;28;20055;-79
2023/01/27 17:51:45;;;;;;;3.92;1.60;;;;;;;2.31;78.64;101642.50;10165392;28;21212;-79
2023/01/27 17:56:50;;;;;;;2.75;1.60;;;;;;;2.33;79.23;101646.84;10163094;28;20127;-79
2023/01/27 18:01:55;;;;;;;5.85;3.33;;;;;;;2.30;78.04;101654.00;10157722;29;20044;-78
2023/01/27 18:06:59;;;;;;;8.50;3.70;;;;;;;2.22;77.35;101658.63;10159692;29;20056;-78
2023/01/27 18:12:05;;;;;;;7.53;4.45;;;;;;;2.25;77.64;101659.44;10167114;28;20052;-79
2023/01/27 18:17:21;;;;;;;7.65;4.10;;;;;;;2.15;76.31;101657.94;10161946;28;20186;-77
2023/01/27 18:22:26;;;;;;;5.10;2.88;;;;;;;2.02;75.23;101673.25;10148122;29;20052;-79
2023/01/27 18:27:31;;;;;;;4.80;2.80;;;;;;;1.96;74.76;101657.53;10152037;28;20056;-79
2023/01/27 18:32:40;;;;;;;4.07;3.08;;;;;;;1.82;73.22;101671.13;10163361;28;20051;-79
2023/01/27 18:37:51;;;;;;;3.67;2.35;;;;;;;1.80;72.58;101678.22;10166603;28;20123;-79
2023/01/27 18:42:55;;;;;;;6.10;2.90;;;;;;;1.84;73.53;101669.31;10146603;28;20058;-78
2023/01/27 18:47:58;;;;;;;5.30;3.42;;;;;;;1.80;72.92;101672.06;10154219;29;20145;-79
2023/01/27 18:53:12;;;;;;;3.25;2.75;;;;;;;1.67;72.03;101669.72;10159285;28;20414;-78
2023/01/27 18:58:16;;;;;;;5.35;3.20;;;;;;;1.75;72.74;101682.75;10158649;28;20064;-79
2023/01/27 19:03:22;;;;;;;4.43;2.72;;;;;;;1.78;73.00;101685.31;10156870;29;21298;-79
2023/01/27 19:08:27;;;;;;;4.68;3.35;;;;;;;1.61;72.36;101696.31;10153519;29;20054;-79
2023/01/27 19:13:30;;;;;;;4.28;3.33;;;;;;;1.70;72.77;101688.19;10163833;28;20060;-79
2023/01/27 19:18:37;;;;;;;9.95;3.95;;;;;;;1.77;73.42;101698.63;10157299;28;20048;-76
2023/01/27 19:23:43;;;;;;;6.82;3.33;;;;;;;1.79;74.37;101689.75;10147488;28;20056;-79
2023/01/27 19:28:48;;;;;;;8.07;4.15;;;;;;;1.77;74.00;101688.91;10148527;28;20642;-79
2023/01/27 19:33:51;;;;;;;8.07;4.75;;;;;;;1.66;73.19;101688.28;10159787;28;20119;-80
2023/01/27 19:39:00;;;;;;;6.82;3.75;;;;;;;1.49;72.80;101688.66;10167042;28;20263;-78
2023/01/27 19:44:03;;;;;;;6.43;4.70;;;;;;;1.68;73.71;101699.72;10153924;28;20067;-78
2023/01/27 19:49:07;;;;;;;6.88;4.43;;;;;;;1.66;73.89;101704.19;10152014;28;20098;-78
2023/01/27 19:54:11;;;;;;;7.40;4.30;;;;;;;1.69;74.20;101706.75;10158656;28;20067;-78
2023/01/27 19:59:14;;;;;;;9.65;5.28;;;;;;;1.77;74.64;101709.22;10158455;28;20052;-77
2023/01/27 20:04:17;;;;;;;7.57;4.93;;;;;;;1.76;74.58;101703.06;10158587;28;20377;-78
2023/01/27 20:09:21;;;;;;;5.82;3.85;;;;;;;1.76;74.49;101716.31;10145755;29;21175;-77
2023/01/27 20:14:24;;;;;;;7.47;4.80;;;;;;;1.81;76.12;101718.84;10161381;28;20450;-78
2023/01/27 20:19:27;;;;;;;8.88;4.95;;;;;;;1.81;76.30;101721.47;10162184;28;20103;-77
2023/01/27 20:24:31;;;;;;;6.55;5.03;;;;;;;1.77;75.38;101712.75;10167620;28;20174;-78
2023/01/27 20:29:36;;;;;;;6.35;4.88;;;;;;;1.79;75.93;101728.63;10161106;29;20089;-78
2023/01/27 20:34:39;;;;;;;6.93;4.75;;;;;;;1.80;76.47;101733.00;10160177;28;20715;-78
2023/01/27 20:39:43;;;;;;;6.57;5.03;;;;;;;1.82;76.77;101736.50;10140838;28;20055;-76
2023/01/27 20:44:46;;;;;;;6.28;4.93;;;;;;;1.79;76.75;101732.13;10150227;28;20045;-78
2023/01/27 20:49:49;;;;;;;9.88;5.35;;;;;;;1.74;76.58;101734.00;10139636;29;20095;-78
2023/01/27 20:54:53;;;;;;;7.43;5.47;;;;;;;1.65;74.91;101742.19;10158170;28;20454;-77
2023/01/27 20:59:57;;;;;;;6.72;4.53;;;;;;;1.66;75.48;101733.31;10167241;28;20269;-78
2023/01/27 21:05:00;;;;;;;8.15;5.18;;;;;;;1.60;74.18;101744.91;10156996;29;20052;-78
2023/01/27 21:10:05;;;;;;;8.40;5.20;;;;;;;1.52;73.20;101746.88;10146401;29;20074;-78
2023/01/27 21:15:09;;;;;;;5.45;4.72;;;;;;;1.48;73.61;101751.38;10170424;28;20434;-78
2023/01/27 21:20:13;;;;;;;9.35;4.32;;;;;;;1.45;73.39;101753.19;10169715;28;20044;-76
2023/01/27 21:25:17;;;;;;;5.10;4.60;;;;;;;1.39;73.55;101751.53;10163210;28;20047;-77
2023/01/27 21:30:20;;;;;;;6.10;4.40;;;;;;;1.39;73.05;101746.25;10153207;29;20048;-78
2023/01/27 21:35:23;;;;;;;12.35;5.30;;;;;;;1.34;73.32;101744.59;10168699;28;20186;-77
2023/01/27 21:40:27;;;;;;;4.82;4.15;;;;;;;1.29;73.26;101744.72;10166816;28;20510;-79
2023/01/27 21:45:30;;;;;;;6.78;3.90;;;;;;;1.19;71.74;101744.03;10159957;28;20056;-79
2023/01/27 21:50:33;;;;;;;7.22;3.90;;;;;;;1.15;71.92;101747.66;10150508;28;20235;-77
2023/01/27 21:55:37;;;;;;;7.80;2.90;;;;;;;1.09;71.34;101736.28;10173527;28;20044;-78
2023/01/27 22:00:40;;;;;;;2.78;2.53;;;;;;;1.00;70.24;101735.56;10161940;29;20533;-76
2023/01/27 22:05:43;;;;;;;3.38;2.70;;;;;;;0.86;68.08;101728.81;10158289;28;20048;-77
2023/01/27 22:10:47;;;;;;;6.25;2.60;;;;;;;0.85;69.29;101727.94;10147277;28;20130;-79
2023/01/27 22:15:50;;;;;;;4.15;2.95;;;;;;;0.90;69.97;101733.13;10155741;28;20056;-79
2023/01/27 22:20:53;;;;;;;2.97;2.22;;;;;;;0.93;71.19;101733.06;10163188;28;20434;-78
2023/01/27 22:25:57;;;;;;;4.35;2.75;;;;;;;0.93;72.06;101726.00;10164664;28;20059;-78
2023/01/27 22:31:01;;;;;;;6.70;3.20;;;;;;;0.98;72.01;101720.63;10194292;29;20727;-77
2023/01/27 22:36:06;;;;;;;4.63;3.10;;;;;;;0.94;72.58;101709.25;10209449;29;20123;-77
2023/01/27 22:41:10;;;;;;;11.45;3.97;;;;;;;0.93;73.32;101696.88;10195596;29;20083;-78
2023/01/27 22:46:13;;;;;;;4.50;3.63;;;;;;;0.95;74.48;101700.38;10196150;23;20131;-76
2023/01/27 22:51:16;;;;;;;4.60;3.33;;;;;;;0.94;72.23;101689.84;10178047;29;20070;-76
2023/01/27 22:56:20;;;;;;;3.53;3.22;;;;;;;0.88;72.48;101689.94;10185344;29;20417;-76
2023/01/27 23:01:23;;;;;;;7.15;3.80;;;;;;;0.95;74.28;101691.59;10191200;29;20555;-76
2023/01/27 23:06:26;;;;;;;4.00;3.30;;;;;;;0.81;71.43;101698.00;10189986;29;20082;-75
2023/01/27 23:11:30;;;;;;;6.05;3.20;;;;;;;0.82;71.87;101707.72;10178361;29;20127;-75
2023/01/27 23:16:33;;;;;;;6.63;3.85;;;;;;;0.84;72.41;101705.88;10183413;29;20050;-75
2023/01/27 23:21:36;;;;;;;5.47;3.80;;;;;;;0.80;70.35;101709.50;10189318;29;20043;-75
2023/01/27 23:26:40;;;;;;;5.28;4.15;;;;;;;0.90;73.99;101712.84;10188300;29;20079;-75
2023/01/27 23:31:44;;;;;;;6.93;4.43;;;;;;;0.98;75.29;101710.03;10175307;29;20068;-75
2023/01/27 23:36:47;;;;;;;3.72;3.42;;;;;;;0.97;74.85;101713.59;10179820;29;20051;-75
2023/01/27 23:41:51;;;;;;;5.60;3.38;;;;;;;0.95;73.90;101723.34;10185887;29;20415;-76
2023/01/27 23:46:54;;;;;;;3.70;3.40;;;;;;;1.05;76.40;101725.78;10191506;29;20570;-75
2023/01/27 23:51:57;;;;;;;4.50;3.75;;;;;;;0.98;73.97;101721.50;10177444;29;20095;-75
2023/01/27 23:57:01;;;;;;;4.20;3.80;;;;;;;0.98;75.32;101716.19;10175954;29;20116;-75
